createdAt,value
2019-03-19T00:01:10.606Z,8.60
2019-03-19T00:03:37.655Z,6.70
2019-03-19T00:06:04.940Z,8.75
2019-03-19T00:08:32.346Z,7.60
2019-03-19T00:10:59.383Z,6.62
2019-03-19T00:13:26.427Z,6.90
2019-03-19T00:15:53.472Z,9.60
2019-03-19T00:18:20.841Z,9.83
2019-03-19T00:20:47.896Z,10.78
2019-03-19T00:23:15.184Z,11.12
2019-03-19T00:25:42.234Z,9.55
2019-03-19T00:28:09.548Z,11.28
2019-03-19T00:30:36.599Z,11.83
2019-03-19T00:33:04.056Z,11.88
2019-03-19T00:35:31.424Z,11.70
2019-03-19T00:37:58.455Z,12.30
2019-03-19T00:40:25.508Z,10.95
2019-03-19T00:42:52.552Z,10.68
2019-03-19T00:45:19.828Z,11.50
2019-03-19T00:47:47.175Z,10.78
2019-03-19T00:50:15.296Z,14.23
2019-03-19T00:52:42.605Z,15.30
2019-03-19T00:55:09.945Z,11.78
2019-03-19T00:57:37.298Z,12.03
2019-03-19T01:00:04.597Z,12.82
2019-03-19T01:02:31.702Z,13.48
2019-03-19T01:04:59.072Z,11.57
2019-03-19T01:07:26.113Z,18.20
2019-03-19T01:09:53.170Z,13.22
2019-03-19T01:12:20.202Z,14.83
2019-03-19T01:14:48.576Z,12.25
2019-03-19T01:17:15.613Z,13.40
2019-03-19T01:19:42.670Z,12.35
2019-03-19T01:22:10.026Z,13.20
2019-03-19T01:24:37.078Z,13.75
2019-03-19T01:27:04.126Z,15.45
2019-03-19T01:29:31.180Z,14.28
2019-03-19T01:31:58.224Z,17.42
2019-03-19T01:34:25.346Z,17.90
2019-03-19T01:36:52.635Z,17.00
2019-03-19T01:39:19.688Z,15.68
2019-03-19T01:41:47.049Z,16.12
2019-03-19T01:44:14.336Z,16.77
2019-03-19T01:46:41.640Z,17.10
2019-03-19T01:49:08.992Z,16.62
2019-03-19T01:51:36.360Z,18.10
2019-03-19T01:54:04.740Z,16.12
2019-03-19T01:56:32.058Z,19.70
2019-03-19T01:59:00.064Z,19.15
2019-03-19T02:01:27.116Z,17.02
2019-03-19T02:03:54.399Z,14.23
2019-03-19T02:06:21.490Z,17.17
2019-03-19T02:08:48.764Z,21.02
2019-03-19T02:11:15.816Z,14.70
2019-03-19T02:13:42.857Z,15.65
2019-03-19T02:16:09.969Z,13.98
2019-03-19T02:18:37.002Z,16.77
2019-03-19T02:21:04.288Z,15.13
2019-03-19T02:23:31.315Z,14.30
2019-03-19T02:25:58.351Z,14.53
2019-03-19T02:28:25.381Z,11.20
2019-03-19T02:30:52.435Z,12.43
2019-03-19T02:33:19.728Z,14.50
2019-03-19T02:35:47.011Z,14.38
2019-03-19T02:38:14.287Z,14.38
2019-03-19T02:40:41.354Z,13.18
2019-03-19T02:43:08.604Z,12.75
2019-03-19T02:45:35.652Z,11.80
2019-03-19T02:48:03.903Z,11.28
2019-03-19T02:50:31.220Z,9.53
2019-03-19T02:52:58.504Z,13.78
2019-03-19T02:55:25.797Z,11.95
2019-03-19T02:57:52.901Z,8.93
2019-03-19T03:00:20.182Z,9.78
2019-03-19T03:02:47.309Z,11.15
2019-03-19T03:05:14.344Z,14.05
2019-03-19T03:07:41.628Z,10.05
2019-03-19T03:10:08.661Z,10.15
2019-03-19T03:12:35.715Z,10.58
2019-03-19T03:15:02.988Z,11.03
2019-03-19T03:17:30.291Z,11.03
2019-03-19T03:19:57.468Z,10.50
2019-03-19T03:22:24.518Z,8.83
2019-03-19T03:24:51.794Z,10.13
2019-03-19T03:27:18.843Z,11.88
2019-03-19T03:29:45.876Z,12.90
2019-03-19T03:32:13.187Z,14.85
2019-03-19T03:34:40.485Z,15.05
2019-03-19T03:37:07.532Z,17.23
2019-03-19T03:39:34.806Z,12.35
2019-03-19T03:42:02.102Z,10.15
2019-03-19T03:44:29.381Z,11.78
2019-03-19T03:46:57.400Z,12.55
2019-03-19T03:49:24.429Z,12.50
2019-03-19T03:51:51.474Z,13.40
2019-03-19T03:54:18.500Z,12.85
2019-03-19T03:56:45.544Z,12.23
2019-03-19T03:59:12.818Z,11.00
2019-03-19T04:01:39.884Z,13.03
2019-03-19T04:04:06.951Z,14.07
2019-03-19T04:06:33.967Z,11.57
2019-03-19T04:09:01.256Z,12.05
2019-03-19T04:11:29.817Z,14.85
2019-03-19T04:13:57.105Z,13.05
2019-03-19T04:16:24.394Z,12.33
2019-03-19T04:18:51.435Z,14.25
2019-03-19T04:21:18.473Z,14.35
2019-03-19T04:23:45.755Z,13.45
2019-03-19T04:26:13.024Z,12.63
2019-03-19T04:28:40.071Z,14.00
2019-03-19T04:31:07.105Z,13.68
2019-03-19T04:33:34.398Z,13.68
2019-03-19T04:36:01.676Z,12.93
2019-03-19T04:38:28.969Z,13.28
2019-03-19T04:40:56.241Z,13.43
2019-03-19T04:48:41.592Z,13.85
2019-03-19T04:51:08.936Z,12.65
2019-03-19T04:53:36.291Z,16.30
2019-03-19T04:56:10.013Z,12.93
2019-03-19T04:58:37.063Z,12.93
2019-03-19T05:01:04.397Z,11.95
2019-03-19T05:03:31.755Z,15.95
2019-03-19T05:05:59.703Z,15.03
2019-03-19T05:08:27.300Z,14.87
2019-03-19T05:10:54.640Z,14.93
2019-03-19T05:15:58.667Z,13.72
2019-03-19T05:18:25.961Z,12.15
2019-03-19T05:20:53.296Z,13.78
2019-03-19T05:23:20.472Z,12.93
2019-03-19T05:25:47.505Z,16.20
2019-03-19T05:28:14.554Z,13.72
2019-03-19T05:30:41.585Z,13.28
2019-03-19T05:33:08.637Z,15.08
2019-03-19T05:35:35.670Z,14.28
2019-03-19T05:38:02.963Z,15.53
2019-03-19T05:40:29.999Z,16.23
2019-03-19T05:42:57.329Z,13.55
2019-03-19T05:45:24.673Z,11.93
2019-03-19T05:47:51.708Z,13.48
2019-03-19T05:50:18.766Z,11.45
2019-03-19T05:52:48.269Z,13.00
2019-03-19T05:55:14.786Z,11.95
2019-03-19T05:57:49.559Z,12.37
2019-03-19T06:00:10.653Z,13.45
2019-03-19T06:02:38.892Z,12.37
2019-03-19T06:05:05.947Z,10.80
2019-03-19T06:07:33.052Z,11.18
2019-03-19T06:10:00.378Z,10.10
2019-03-19T06:12:27.657Z,11.65
2019-03-19T06:14:54.981Z,9.03
2019-03-19T06:17:22.075Z,13.22
2019-03-19T06:19:49.065Z,9.35
2019-03-19T06:22:16.095Z,9.15
2019-03-19T06:24:43.211Z,7.65
2019-03-19T06:27:10.243Z,7.53
2019-03-19T06:29:37.580Z,7.75
2019-03-19T06:32:04.932Z,7.10
2019-03-19T06:34:32.288Z,9.68
2019-03-19T06:36:59.658Z,6.55
2019-03-19T06:39:27.016Z,8.68
2019-03-19T06:41:54.050Z,7.30
2019-03-19T06:44:21.103Z,7.37
2019-03-19T06:46:48.141Z,7.35
2019-03-19T06:49:15.516Z,7.50
2019-03-19T06:51:42.851Z,8.03
2019-03-19T06:54:10.154Z,9.20
2019-03-19T06:56:38.264Z,7.70
2019-03-19T06:59:05.314Z,11.03
2019-03-19T07:01:32.357Z,8.30
2019-03-19T07:03:59.408Z,6.95
2019-03-19T07:06:26.451Z,6.30
2019-03-19T07:08:53.824Z,9.00
2019-03-19T07:11:20.876Z,8.65
2019-03-19T07:13:48.161Z,7.28
2019-03-19T07:16:15.203Z,7.47
2019-03-19T07:18:42.531Z,8.03
2019-03-19T07:21:09.582Z,7.22
2019-03-19T07:23:36.949Z,7.78
2019-03-19T07:26:03.998Z,7.55
2019-03-19T07:28:32.361Z,7.92
2019-03-19T07:30:59.715Z,8.58
2019-03-19T07:33:27.088Z,6.65
2019-03-19T07:35:54.141Z,6.50
2019-03-19T07:38:21.183Z,6.10
2019-03-19T07:40:48.244Z,7.25
2019-03-19T07:43:15.572Z,8.60
2019-03-19T07:45:42.944Z,7.00
2019-03-19T07:48:10.282Z,7.05
2019-03-19T07:50:37.637Z,8.28
2019-03-19T07:53:05.003Z,7.75
2019-03-19T07:55:32.346Z,6.05
2019-03-19T07:57:59.625Z,7.45
2019-03-19T08:00:26.673Z,7.97
2019-03-19T08:02:53.714Z,28.47
2019-03-19T08:05:20.764Z,6.90
2019-03-19T08:07:48.128Z,7.50
2019-03-19T08:10:15.454Z,6.35
2019-03-19T08:12:42.812Z,6.37
2019-03-19T08:15:09.856Z,8.80
2019-03-19T08:17:36.902Z,7.87
2019-03-19T08:20:04.274Z,10.03
2019-03-19T08:22:31.332Z,7.55
2019-03-19T08:24:59.439Z,7.80
2019-03-19T08:27:26.487Z,8.98
2019-03-19T08:29:54.904Z,9.35
2019-03-19T08:32:22.208Z,8.13
2019-03-19T08:34:49.515Z,7.17
2019-03-19T08:37:16.871Z,8.35
2019-03-19T08:39:44.224Z,7.55
2019-03-19T08:42:11.615Z,9.00
2019-03-19T08:44:38.864Z,9.68
2019-03-19T08:47:05.912Z,8.68
2019-03-19T08:49:32.950Z,7.58
2019-03-19T08:52:00.300Z,5.90
2019-03-19T08:54:27.340Z,8.88
2019-03-19T08:56:54.624Z,9.35
2019-03-19T08:59:21.939Z,9.15
2019-03-19T09:01:49.296Z,8.55
2019-03-19T09:04:16.396Z,8.10
2019-03-19T09:06:43.451Z,9.38
2019-03-19T09:09:10.477Z,7.08
2019-03-19T09:11:37.808Z,6.35
2019-03-19T09:14:05.149Z,9.10
2019-03-19T09:16:32.502Z,8.55
2019-03-19T09:18:59.877Z,7.10
2019-03-19T09:21:27.233Z,7.78
2019-03-19T09:23:54.265Z,12.13
2019-03-19T09:26:21.312Z,9.65
2019-03-19T09:28:48.665Z,10.72
2019-03-19T09:31:16.022Z,11.73
2019-03-19T09:33:43.373Z,11.15
2019-03-19T09:36:10.656Z,10.18
2019-03-19T09:38:38.783Z,7.65
2019-03-19T09:41:06.156Z,7.20
2019-03-19T09:43:33.527Z,7.15
2019-03-19T09:46:00.864Z,7.20
2019-03-19T09:48:28.379Z,8.55
2019-03-19T09:50:55.799Z,6.12
2019-03-19T09:53:22.856Z,5.30
2019-03-19T09:55:50.184Z,7.20
2019-03-19T09:58:17.545Z,7.97
2019-03-19T10:00:44.913Z,9.43
2019-03-19T10:03:12.249Z,8.43
2019-03-19T10:05:40.256Z,22.58
2019-03-19T10:08:07.371Z,8.85
2019-03-19T10:10:34.829Z,16.02
2019-03-19T10:13:02.286Z,11.75
2019-03-19T10:15:29.327Z,8.15
2019-03-19T10:17:56.381Z,9.45
2019-03-19T10:20:23.415Z,8.75
2019-03-19T10:22:50.783Z,11.45
2019-03-19T10:25:18.260Z,8.18
2019-03-19T10:27:45.315Z,12.37
2019-03-19T10:30:12.667Z,9.53
2019-03-19T10:32:40.017Z,6.08
2019-03-19T10:35:07.058Z,10.28
2019-03-19T10:37:34.173Z,5.83
2019-03-19T10:40:01.218Z,6.67
2019-03-19T10:42:28.261Z,10.43
2019-03-19T10:44:55.296Z,9.73
2019-03-19T10:47:22.695Z,6.87
2019-03-19T10:49:49.977Z,7.80
2019-03-19T10:52:17.304Z,8.03
2019-03-19T10:54:45.405Z,6.92
2019-03-19T10:57:12.457Z,7.67
2019-03-19T10:59:48.778Z,7.45
2019-03-19T11:02:08.584Z,6.28
2019-03-19T11:04:35.615Z,4.62
2019-03-19T11:07:02.973Z,6.60
2019-03-19T11:09:30.324Z,5.00
2019-03-19T11:11:57.377Z,8.13
2019-03-19T11:14:24.420Z,4.83
2019-03-19T11:16:51.800Z,8.80
2019-03-19T11:19:18.853Z,3.58
2019-03-19T11:21:47.304Z,7.17
2019-03-19T11:24:15.685Z,5.05
2019-03-19T11:26:43.040Z,4.97
2019-03-19T11:29:10.397Z,6.25
2019-03-19T11:31:37.750Z,7.20
2019-03-19T11:34:05.309Z,7.47
2019-03-19T11:36:32.348Z,6.55
2019-03-19T11:38:59.732Z,5.97
2019-03-19T11:41:26.770Z,4.30
2019-03-19T11:43:54.117Z,6.60
2019-03-19T11:46:21.510Z,5.03
2019-03-19T11:48:48.564Z,4.40
2019-03-19T11:51:15.876Z,6.42
2019-03-19T11:53:43.229Z,6.62
2019-03-19T11:56:10.264Z,6.90
2019-03-19T11:58:37.388Z,5.90
2019-03-19T12:01:04.425Z,6.70
2019-03-19T12:03:31.568Z,5.28
2019-03-19T12:05:58.603Z,6.40
2019-03-19T12:08:25.699Z,7.30
2019-03-19T12:10:53.076Z,6.08
2019-03-19T12:13:20.126Z,4.55
2019-03-19T12:15:47.161Z,8.30
2019-03-19T12:18:14.209Z,5.40
2019-03-19T12:20:42.461Z,4.97
2019-03-19T12:23:09.751Z,6.10
2019-03-19T12:25:37.053Z,8.10
2019-03-19T12:28:04.100Z,6.03
2019-03-19T12:30:31.229Z,5.08
2019-03-19T12:32:58.277Z,5.67
2019-03-19T12:35:25.316Z,6.70
2019-03-19T12:37:52.653Z,6.47
2019-03-19T12:40:19.688Z,3.60
2019-03-19T12:42:47.992Z,6.67
2019-03-19T12:45:15.053Z,5.25
2019-03-19T12:47:42.382Z,6.05
2019-03-19T12:50:09.429Z,4.97
2019-03-19T12:52:36.785Z,4.83
2019-03-19T12:55:04.158Z,5.55
2019-03-19T12:57:31.278Z,6.55
2019-03-19T12:59:58.323Z,4.42
2019-03-19T13:02:25.613Z,5.70
2019-03-19T13:04:52.661Z,6.87
2019-03-19T13:07:19.702Z,7.47
2019-03-19T13:09:47.041Z,5.37
2019-03-19T13:12:14.074Z,6.78
2019-03-19T13:14:41.121Z,7.80
2019-03-19T13:17:08.512Z,4.12
2019-03-19T13:19:35.565Z,5.28
2019-03-19T13:22:02.594Z,4.37
2019-03-19T13:24:29.645Z,8.68
2019-03-19T13:26:56.929Z,6.92
2019-03-19T13:29:23.978Z,6.42
2019-03-19T13:31:51.019Z,8.43
2019-03-19T13:34:18.319Z,8.53
2019-03-19T13:36:45.693Z,5.90
2019-03-19T13:39:13.048Z,6.65
2019-03-19T13:41:40.090Z,5.17
2019-03-19T13:44:07.137Z,6.83
2019-03-19T13:46:34.517Z,8.18
2019-03-19T13:49:01.878Z,9.18
2019-03-19T13:51:29.209Z,5.78
2019-03-19T13:53:56.571Z,5.97
2019-03-19T13:56:24.434Z,7.17
2019-03-19T13:58:51.808Z,4.78
2019-03-19T14:01:18.841Z,7.08
2019-03-19T14:03:45.882Z,7.05
2019-03-19T14:06:12.939Z,5.17
2019-03-19T14:08:39.969Z,5.30
2019-03-19T14:11:07.017Z,4.72
2019-03-19T14:13:34.049Z,6.53
2019-03-19T14:16:01.430Z,8.33
2019-03-19T14:18:28.537Z,7.12
2019-03-19T14:20:55.959Z,6.22
2019-03-19T14:23:23.241Z,5.37
2019-03-19T14:25:50.756Z,6.40
2019-03-19T14:28:19.706Z,6.22
2019-03-19T14:30:46.873Z,5.25
2019-03-19T14:33:13.896Z,6.12
2019-03-19T14:35:40.941Z,9.85
2019-03-19T14:38:08.046Z,6.45
2019-03-19T14:40:35.099Z,8.38
2019-03-19T14:43:02.133Z,5.22
2019-03-19T14:45:29.494Z,2.98
2019-03-19T14:47:56.525Z,6.47
2019-03-19T14:50:23.576Z,8.05
2019-03-19T14:52:50.616Z,5.53
2019-03-19T14:55:17.661Z,4.25
2019-03-19T14:57:44.697Z,9.08
2019-03-19T15:00:11.744Z,6.92
2019-03-19T15:02:39.128Z,6.67
2019-03-19T15:05:06.196Z,10.05
2019-03-19T15:07:33.552Z,9.85
2019-03-19T15:10:00.908Z,7.65
2019-03-19T15:12:29.015Z,13.15
2019-03-19T15:14:56.065Z,7.45
2019-03-19T15:17:23.096Z,8.78
2019-03-19T15:19:50.151Z,4.55
2019-03-19T15:22:17.483Z,5.67
2019-03-19T15:24:44.680Z,7.10
2019-03-19T15:27:12.069Z,4.92
2019-03-19T15:29:39.440Z,6.22
2019-03-19T15:32:06.778Z,8.15
2019-03-19T15:34:33.813Z,7.10
2019-03-19T15:37:01.827Z,4.60
2019-03-19T15:39:28.868Z,6.28
2019-03-19T15:41:56.196Z,7.72
2019-03-19T15:44:23.581Z,4.20
2019-03-19T15:46:50.927Z,7.05
2019-03-19T15:49:18.286Z,4.17
2019-03-19T15:51:45.637Z,4.03
2019-03-19T15:54:12.971Z,6.17
2019-03-19T15:56:40.324Z,5.92
2019-03-19T15:59:08.919Z,4.58
2019-03-19T16:04:15.019Z,6.55
2019-03-19T16:09:31.498Z,8.98
2019-03-19T16:12:00.912Z,7.90
2019-03-19T16:25:06.281Z,8.45
2019-03-19T16:30:19.956Z,5.10
2019-03-19T16:32:57.063Z,6.05
2019-03-19T16:35:26.306Z,7.90
2019-03-19T16:38:02.523Z,5.00
2019-03-19T16:40:34.355Z,6.03
2019-03-19T16:45:32.899Z,7.25
2019-03-19T16:48:00.939Z,6.53
2019-03-19T16:50:28.125Z,9.20
2019-03-19T16:53:02.503Z,7.42
2019-03-19T17:00:56.350Z,4.58
2019-03-19T17:03:30.341Z,8.70
2019-03-19T17:06:02.807Z,4.15
2019-03-19T17:14:06.327Z,7.67
2019-03-19T17:16:39.261Z,7.05
2019-03-19T17:19:10.691Z,9.78
2019-03-19T17:21:42.066Z,17.85
2019-03-19T17:24:11.643Z,12.25
2019-03-19T17:26:39.080Z,7.78
2019-03-19T17:29:06.108Z,8.43
2019-03-19T17:36:53.287Z,8.83
2019-03-19T17:39:20.653Z,7.80
2019-03-19T17:41:52.193Z,7.65
2019-03-19T17:44:24.593Z,6.55
2019-03-19T17:46:54.832Z,8.75
2019-03-19T17:49:24.009Z,10.75
2019-03-19T17:51:51.179Z,4.55
2019-03-19T17:54:19.333Z,5.42
2019-03-19T17:56:49.431Z,4.15
2019-03-19T17:59:18.940Z,6.58
2019-03-19T18:01:46.492Z,6.87
2019-03-19T18:04:22.004Z,6.92
2019-03-19T18:06:49.602Z,5.85
2019-03-19T18:09:16.972Z,3.75
2019-03-19T18:11:45.744Z,3.52
2019-03-19T18:14:20.063Z,28.70
2019-03-19T18:19:21.038Z,5.85
2019-03-19T18:21:49.520Z,5.33
2019-03-19T18:24:22.990Z,7.33
2019-03-19T18:26:50.559Z,9.78
2019-03-19T18:29:24.300Z,4.75
2019-03-19T18:31:51.348Z,8.98
2019-03-19T18:34:26.768Z,8.58
2019-03-19T18:36:54.212Z,7.67
2019-03-19T18:39:25.768Z,5.80
2019-03-19T18:41:55.400Z,8.43
2019-03-19T18:47:12.215Z,5.50
2019-03-19T18:49:40.509Z,10.10
2019-03-19T18:52:12.340Z,9.08
2019-03-19T18:54:40.839Z,3.55
2019-03-19T18:57:07.894Z,4.75
2019-03-19T18:59:42.096Z,6.40
2019-03-19T19:02:12.358Z,5.05
2019-03-19T19:04:51.880Z,7.67
2019-03-19T19:07:19.204Z,12.82
2019-03-19T19:09:47.690Z,19.62
2019-03-19T19:12:15.059Z,5.17
2019-03-19T19:17:46.459Z,3.87
2019-03-19T19:20:14.623Z,5.30
2019-03-19T19:22:42.149Z,7.95
2019-03-19T19:25:27.668Z,8.93
2019-03-19T19:27:54.961Z,4.37
2019-03-19T19:30:24.147Z,8.58
2019-03-19T19:33:01.689Z,4.60
2019-03-19T19:35:23.323Z,5.10
2019-03-19T19:43:11.548Z,7.28
2019-03-19T19:45:39.712Z,7.85
2019-03-19T19:48:07.965Z,15.48
2019-03-19T19:50:41.143Z,10.40
2019-03-19T19:55:41.713Z,7.53
2019-03-19T19:58:10.148Z,3.27
2019-03-19T20:00:52.490Z,7.25
2019-03-19T20:03:20.771Z,6.40
2019-03-19T20:05:49.207Z,2.80
2019-03-19T20:08:21.934Z,6.58
2019-03-19T20:10:49.854Z,7.28
2019-03-19T20:13:18.443Z,11.90
2019-03-19T20:15:45.681Z,5.00
2019-03-19T20:20:52.219Z,12.40
2019-03-19T20:23:19.481Z,5.30
2019-03-19T20:25:48.962Z,7.45
2019-03-19T20:28:21.974Z,4.63
2019-03-19T20:31:02.288Z,11.80
2019-03-19T20:33:30.783Z,24.98
2019-03-19T20:36:03.550Z,7.95
2019-03-19T20:46:21.762Z,10.50
2019-03-19T20:48:49.967Z,8.10
2019-03-19T20:51:23.550Z,8.53
2019-03-19T20:53:50.720Z,6.80
2019-03-19T20:56:22.125Z,4.67
2019-03-19T21:01:22.391Z,6.00
2019-03-19T21:03:51.587Z,7.90
2019-03-19T21:06:19.120Z,9.78
2019-03-19T21:11:36.356Z,5.78
2019-03-19T21:19:10.201Z,14.13
2019-03-19T21:21:42.552Z,13.18
2019-03-19T21:24:23.788Z,11.80
2019-03-19T21:26:51.056Z,15.95
2019-03-19T21:29:22.709Z,7.37
2019-03-19T21:31:50.969Z,10.98
2019-03-19T21:34:28.581Z,6.60
2019-03-19T21:36:56.856Z,6.13
2019-03-19T21:39:29.193Z,7.22
2019-03-19T21:41:57.767Z,9.60
2019-03-19T21:44:28.404Z,7.33
2019-03-19T21:47:02.637Z,4.60
2019-03-19T21:52:24.971Z,8.40
2019-03-19T21:57:34.912Z,8.30
2019-03-19T22:00:02.130Z,8.55
2019-03-19T22:02:31.055Z,4.35
2019-03-19T22:04:58.105Z,8.38
2019-03-19T22:07:25.564Z,6.72
2019-03-19T22:09:52.608Z,6.53
2019-03-19T22:12:19.639Z,8.20
2019-03-19T22:14:47.013Z,7.05
2019-03-19T22:17:14.047Z,7.50
2019-03-19T22:19:41.092Z,4.53
2019-03-19T22:22:08.288Z,5.78
2019-03-19T22:24:35.332Z,8.78
2019-03-19T22:27:02.370Z,9.23
2019-03-19T22:29:29.569Z,7.15
2019-03-19T22:31:56.615Z,5.87
2019-03-19T22:34:23.908Z,9.28
2019-03-19T22:36:51.284Z,6.62
2019-03-19T22:39:18.621Z,6.78
2019-03-19T22:41:45.676Z,9.90
2019-03-19T22:44:13.021Z,8.03
2019-03-19T22:46:40.207Z,6.47
2019-03-19T22:49:07.238Z,5.25
2019-03-19T22:51:34.592Z,7.58
2019-03-19T22:54:01.945Z,7.25
2019-03-19T22:56:29.240Z,3.47
2019-03-19T22:58:56.555Z,5.90
2019-03-19T23:01:25.022Z,7.50
2019-03-19T23:03:52.392Z,7.17
2019-03-19T23:06:19.440Z,5.97
2019-03-19T23:08:46.777Z,9.70
2019-03-19T23:11:13.836Z,6.60
2019-03-19T23:13:40.886Z,5.37
2019-03-19T23:16:08.232Z,4.75
2019-03-19T23:18:35.689Z,9.20
2019-03-19T23:21:02.752Z,7.30
2019-03-19T23:23:30.215Z,8.70
2019-03-19T23:25:57.268Z,6.70
2019-03-19T23:28:24.597Z,12.45
2019-03-19T23:30:53.266Z,11.63
2019-03-19T23:33:20.544Z,7.12
2019-03-19T23:35:47.590Z,6.95
2019-03-19T23:38:14.941Z,6.10
2019-03-19T23:40:41.989Z,4.85
2019-03-19T23:43:09.025Z,8.13
2019-03-19T23:45:36.067Z,6.53
2019-03-19T23:48:03.105Z,7.78
2019-03-19T23:50:30.148Z,6.60
2019-03-19T23:52:57.427Z,6.45
2019-03-19T23:55:24.480Z,6.95
2019-03-19T23:57:51.837Z,3.05
